createdAt,value
2022-12-11T00:04:45.552Z,9.67
2022-12-11T00:10:09.635Z,10.03
2022-12-11T00:15:31.665Z,9.20
2022-12-11T00:20:54.560Z,10.77
2022-12-11T00:26:17.738Z,9.40
2022-12-11T00:31:39.385Z,10.67
2022-12-11T00:37:02.633Z,8.40
2022-12-11T00:42:24.259Z,8.07
2022-12-11T00:47:46.207Z,9.53
2022-12-11T00:53:09.753Z,8.70
2022-12-11T00:58:31.513Z,10.20
2022-12-11T01:03:54.754Z,8.60
2022-12-11T01:09:35.415Z,8.87
2022-12-11T01:14:57.514Z,8.57
2022-12-11T01:20:20.372Z,9.50
2022-12-11T01:25:44.276Z,9.53
2022-12-11T01:31:10.143Z,8.90
2022-12-11T01:36:32.168Z,10.37
2022-12-11T01:41:59.694Z,10.40
2022-12-11T01:47:23.275Z,9.50
2022-12-11T01:52:47.545Z,11.23
2022-12-11T01:58:13.521Z,9.23
2022-12-11T02:03:35.614Z,9.83
2022-12-11T02:08:57.870Z,9.97
2022-12-11T02:14:31.057Z,9.50
2022-12-11T02:20:03.199Z,10.27
2022-12-11T02:25:32.206Z,9.50
2022-12-11T02:31:00.350Z,9.90
2022-12-11T02:36:26.189Z,9.73
2022-12-11T02:41:50.535Z,10.73
2022-12-11T02:47:16.269Z,12.03
2022-12-11T02:52:39.952Z,11.73
2022-12-11T02:58:05.541Z,10.67
2022-12-11T03:03:31.235Z,9.83
2022-12-11T03:08:53.171Z,9.43
2022-12-11T03:14:15.066Z,9.90
2022-12-11T03:19:42.968Z,9.20
2022-12-11T03:25:09.639Z,7.73
2022-12-11T03:30:36.062Z,8.17
2022-12-11T03:36:04.030Z,9.70
2022-12-11T03:41:28.079Z,9.90
2022-12-11T03:46:51.722Z,9.03
2022-12-11T03:52:17.033Z,9.47
2022-12-11T03:57:39.395Z,10.97
2022-12-11T04:03:17.995Z,9.20
2022-12-11T04:08:40.989Z,8.80
2022-12-11T04:14:19.941Z,9.00
2022-12-11T04:19:59.116Z,8.03
2022-12-11T04:25:22.437Z,8.27
2022-12-11T04:30:50.065Z,8.47
2022-12-11T04:36:13.118Z,7.93
2022-12-11T04:41:37.260Z,8.03
2022-12-11T04:46:59.286Z,8.40
2022-12-11T04:52:21.336Z,8.87
2022-12-11T04:57:44.373Z,8.23
2022-12-11T05:03:06.352Z,10.07
2022-12-11T05:08:28.423Z,5.83
2022-12-11T05:13:51.328Z,6.60
2022-12-11T05:19:13.460Z,7.40
2022-12-11T05:24:35.122Z,8.00
2022-12-11T05:29:59.713Z,7.93
2022-12-11T05:35:22.077Z,8.50
2022-12-11T05:40:44.636Z,7.00
2022-12-11T05:46:09.489Z,8.87
2022-12-11T05:51:31.872Z,7.10
2022-12-11T05:56:53.817Z,8.33
2022-12-11T06:02:17.817Z,7.00
2022-12-11T06:07:39.760Z,7.97
2022-12-11T06:13:01.989Z,7.13
2022-12-11T06:18:25.323Z,8.33
2022-12-11T06:23:48.804Z,7.43
2022-12-11T06:29:12.938Z,9.50
2022-12-11T06:34:36.379Z,8.50
2022-12-11T06:39:58.125Z,8.13
2022-12-11T06:45:20.194Z,9.70
2022-12-11T06:50:43.348Z,13.57
2022-12-11T06:56:06.230Z,11.43
2022-12-11T07:01:29.643Z,8.87
2022-12-11T07:06:53.541Z,8.07
2022-12-11T07:12:15.238Z,9.60
2022-12-11T07:17:36.918Z,10.03
2022-12-11T07:23:00.365Z,8.77
2022-12-11T07:28:22.516Z,7.83
2022-12-11T07:33:45.101Z,8.40
2022-12-11T07:39:09.095Z,8.97
2022-12-11T07:44:31.038Z,9.87
2022-12-11T07:49:53.242Z,9.43
2022-12-11T07:55:16.493Z,10.10
2022-12-11T08:00:38.497Z,11.03
2022-12-11T08:06:00.253Z,8.90
2022-12-11T08:11:23.835Z,10.17
2022-12-11T08:16:45.860Z,9.40
2022-12-11T08:22:07.543Z,8.93
2022-12-11T08:27:30.906Z,9.63
2022-12-11T08:32:52.542Z,10.33
2022-12-11T08:38:14.498Z,8.60
2022-12-11T08:43:37.681Z,10.83
2022-12-11T08:49:00.313Z,10.03
2022-12-11T08:54:22.319Z,11.33
2022-12-11T08:59:48.240Z,13.43
2022-12-11T09:05:10.685Z,9.73
2022-12-11T09:10:32.448Z,9.70
2022-12-11T09:15:57.696Z,11.77
2022-12-11T09:21:22.223Z,12.70
2022-12-11T09:26:44.033Z,9.17
2022-12-11T09:32:07.653Z,7.87
2022-12-11T09:37:29.361Z,8.37
2022-12-11T09:42:56.325Z,7.63
2022-12-11T09:48:25.460Z,7.73
2022-12-11T09:53:47.693Z,7.97
2022-12-11T09:59:20.497Z,9.97
2022-12-11T10:04:53.353Z,13.63
2022-12-11T10:17:00.264Z,18.10
2022-12-11T10:22:26.101Z,19.97
2022-12-11T10:27:47.828Z,34.77
2022-12-11T10:33:19.633Z,28.77
2022-12-11T10:38:45.357Z,19.90
2022-12-11T10:44:17.554Z,13.67
2022-12-11T10:49:41.023Z,10.57
2022-12-11T10:55:07.783Z,14.20
2022-12-11T11:00:37.270Z,11.80
2022-12-11T11:06:17.249Z,9.23
2022-12-11T11:11:41.174Z,11.37
2022-12-11T11:17:04.062Z,9.17
2022-12-11T11:22:26.751Z,11.83
2022-12-11T11:27:54.308Z,11.87
2022-12-11T11:33:21.296Z,11.90
2022-12-11T11:38:50.618Z,11.20
2022-12-11T11:44:19.482Z,8.73
2022-12-11T11:49:52.315Z,9.90
2022-12-11T11:55:22.469Z,8.20
2022-12-11T12:00:46.454Z,10.50
2022-12-11T12:06:19.257Z,10.63
2022-12-11T12:11:48.046Z,10.90
2022-12-11T12:17:25.322Z,9.77
2022-12-11T12:23:00.558Z,12.07
2022-12-11T12:28:31.535Z,12.10
2022-12-11T12:34:04.249Z,9.80
2022-12-11T12:39:38.528Z,11.30
2022-12-11T12:45:03.344Z,10.63
2022-12-11T12:50:34.601Z,14.43
2022-12-11T12:55:57.268Z,13.57
2022-12-11T13:01:21.770Z,14.33
2022-12-11T13:06:47.242Z,12.30
2022-12-11T13:12:16.031Z,10.90
2022-12-11T13:17:39.783Z,11.73
2022-12-11T13:23:19.466Z,12.20
2022-12-11T13:28:51.791Z,11.30
2022-12-11T13:34:19.130Z,12.33
2022-12-11T13:39:48.516Z,11.20
2022-12-11T13:45:21.039Z,11.43
2022-12-11T13:50:45.196Z,13.43
2022-12-11T13:56:17.212Z,13.07
2022-12-11T14:01:39.192Z,13.37
2022-12-11T14:07:02.579Z,12.80
2022-12-11T14:12:25.802Z,14.60
2022-12-11T14:17:51.687Z,12.70
2022-12-11T14:23:20.037Z,13.70
2022-12-11T14:28:44.457Z,12.00
2022-12-11T14:34:14.956Z,11.67
2022-12-11T14:39:40.774Z,12.83
2022-12-11T14:45:09.150Z,13.33
2022-12-11T14:50:39.313Z,12.07
2022-12-11T14:56:06.406Z,12.73
2022-12-11T15:01:32.880Z,13.33
2022-12-11T15:06:56.139Z,12.17
2022-12-11T15:12:19.931Z,13.23
2022-12-11T15:17:47.165Z,11.60
2022-12-11T15:23:18.466Z,13.13
2022-12-11T15:28:40.836Z,13.33
2022-12-11T15:34:03.910Z,12.27
2022-12-11T15:39:25.884Z,14.10
2022-12-11T15:44:48.035Z,13.03
2022-12-11T15:50:17.943Z,12.17
2022-12-11T15:55:40.429Z,13.47
2022-12-11T16:01:02.767Z,12.43
2022-12-11T16:06:26.271Z,13.97
2022-12-11T16:11:47.602Z,15.27
2022-12-11T16:17:11.747Z,14.13
2022-12-11T16:22:34.825Z,16.40
2022-12-11T16:27:58.662Z,12.70
2022-12-11T16:33:20.782Z,12.50
2022-12-11T16:38:53.135Z,14.43
2022-12-11T16:44:15.896Z,12.27
2022-12-11T16:49:38.156Z,14.73
2022-12-11T16:55:01.570Z,14.40
2022-12-11T17:00:26.691Z,13.07
2022-12-11T17:05:48.337Z,12.67
2022-12-11T17:11:13.001Z,15.20
2022-12-11T17:16:36.486Z,16.47
2022-12-11T17:21:59.180Z,12.97
2022-12-11T17:27:25.520Z,15.73
2022-12-11T17:32:50.005Z,18.00
2022-12-11T17:38:11.812Z,17.77
2022-12-11T17:43:35.145Z,14.27
2022-12-11T17:49:00.249Z,17.43
2022-12-11T17:54:22.124Z,16.63
2022-12-11T17:59:45.741Z,19.13
2022-12-11T18:05:08.228Z,19.17
2022-12-11T18:10:30.309Z,19.70
2022-12-11T18:16:02.512Z,17.40
2022-12-11T18:21:27.458Z,17.43
2022-12-11T18:26:49.616Z,20.30
2022-12-11T18:32:15.229Z,20.30
2022-12-11T18:37:37.261Z,19.30
2022-12-11T18:42:59.014Z,22.47
2022-12-11T18:48:21.736Z,19.93
2022-12-11T18:53:43.299Z,20.27
2022-12-11T18:59:05.683Z,20.20
2022-12-11T19:04:29.046Z,22.80
2022-12-11T19:09:50.622Z,21.67
2022-12-11T19:15:13.798Z,18.50
2022-12-11T19:21:03.196Z,21.97
2022-12-11T19:26:25.824Z,21.77
2022-12-11T19:31:47.431Z,22.73
2022-12-11T19:37:10.987Z,19.73
2022-12-11T19:42:33.040Z,20.90
2022-12-11T19:47:55.247Z,20.77
2022-12-11T19:53:18.816Z,23.23
2022-12-11T19:58:40.397Z,22.87
2022-12-11T20:04:04.357Z,24.73
2022-12-11T20:09:28.623Z,21.17
2022-12-11T20:14:50.115Z,22.47
2022-12-11T20:20:12.878Z,22.13
2022-12-11T20:25:36.063Z,26.37
2022-12-11T20:31:05.161Z,24.17
2022-12-11T20:36:28.625Z,23.77
2022-12-11T20:41:51.997Z,24.07
2022-12-11T20:47:13.527Z,23.90
2022-12-11T20:52:36.490Z,25.70
2022-12-11T20:57:59.647Z,23.83
2022-12-11T21:03:21.945Z,25.57
2022-12-11T21:08:43.606Z,29.50
2022-12-11T21:14:07.597Z,29.07
2022-12-11T21:19:30.230Z,24.43
2022-12-11T21:24:52.217Z,25.10
2022-12-11T21:30:16.288Z,23.43
2022-12-11T21:35:37.966Z,24.67
2022-12-11T21:41:07.274Z,22.90
2022-12-11T21:46:31.156Z,21.10
2022-12-11T21:51:52.685Z,22.37
2022-12-11T21:57:14.527Z,21.57
2022-12-11T22:02:41.042Z,21.83
2022-12-11T22:08:03.455Z,25.07
2022-12-11T22:13:25.612Z,24.67
2022-12-11T22:18:48.984Z,24.60
2022-12-11T22:24:11.029Z,23.23
2022-12-11T22:29:33.148Z,21.83
2022-12-11T22:34:57.814Z,22.47
2022-12-11T22:40:19.376Z,22.00
2022-12-11T22:45:42.059Z,22.77
2022-12-11T22:51:07.623Z,26.47
2022-12-11T22:56:29.624Z,22.47
2022-12-11T23:01:51.871Z,24.13
2022-12-11T23:07:14.924Z,22.80
2022-12-11T23:12:37.209Z,22.83
2022-12-11T23:17:58.796Z,21.50
2022-12-11T23:23:21.814Z,21.00
2022-12-11T23:28:43.721Z,22.70
2022-12-11T23:34:05.888Z,23.07
2022-12-11T23:39:29.263Z,20.30
2022-12-11T23:44:51.187Z,21.83
2022-12-11T23:50:12.970Z,21.57
2022-12-11T23:55:36.453Z,20.83
